Time;durP1;ratioP1;P1;durP2;ratioP2;P2;SDS_P1;SDS_P2;PMS_P1;PMS_P2;Temp;Humidity;BMP_temperature;BMP_pressure;BME280_temperature;BME280_humidity;BME280_pressure;Samples;Min_cycle;Max_cycle;Signal;HPM_P1;HPM_P2
2023/11/17 00:00:37;;;;;;;4.95;3.78;;;;;;;5.67;84.37;97972.63;5021521;27;102776;-64
2023/11/17 00:03:06;;;;;;;4.50;3.38;;;;;;;5.59;83.73;97991.78;5015800;27;104224;-64
2023/11/17 00:05:35;;;;;;;5.32;3.50;;;;;;;5.33;84.13;98000.44;5032806;27;103090;-64
2023/11/17 00:08:05;;;;;;;6.32;4.25;;;;;;;5.55;84.36;98012.25;5010981;27;103039;-64
2023/11/17 00:10:34;;;;;;;5.80;3.70;;;;;;;5.57;84.37;98020.00;5021610;27;102669;-64
2023/11/17 00:13:03;;;;;;;4.82;3.53;;;;;;;5.54;84.50;98036.91;5021880;27;102744;-64
2023/11/17 00:15:31;;;;;;;5.18;3.10;;;;;;;5.39;84.01;98041.84;5016771;27;103188;-64
2023/11/17 00:18:00;;;;;;;4.40;2.80;;;;;;;5.37;83.75;98054.31;5019473;27;102762;-64
2023/11/17 00:20:28;;;;;;;4.05;2.60;;;;;;;5.44;83.68;98062.41;5020346;27;102584;-65
2023/11/17 00:22:57;;;;;;;6.22;2.78;;;;;;;5.39;83.86;98073.38;5016350;27;104304;-64
2023/11/17 00:25:29;;;;;;;5.32;3.08;;;;;;;5.55;83.94;98092.88;5015422;27;103342;-63
2023/11/17 00:27:57;;;;;;;7.30;3.20;;;;;;;5.66;83.97;98103.16;5015920;27;102992;-64
2023/11/17 00:30:26;;;;;;;4.63;2.90;;;;;;;5.61;83.53;98113.31;5021165;27;102604;-63
2023/11/17 00:32:55;;;;;;;3.53;2.67;;;;;;;5.85;83.59;98122.38;5020401;27;103132;-64
2023/11/17 00:35:23;;;;;;;4.43;2.53;;;;;;;5.76;82.91;98134.59;5019125;27;103695;-63
2023/11/17 00:37:53;;;;;;;3.67;2.42;;;;;;;5.47;83.40;98146.16;5016453;28;102707;-63
2023/11/17 00:40:23;;;;;;;4.97;2.90;;;;;;;5.41;83.71;98152.00;5017560;27;104439;-63
2023/11/17 00:42:53;;;;;;;3.90;2.22;;;;;;;5.64;83.40;98170.78;5019917;27;103172;-63
2023/11/17 00:45:22;;;;;;;4.10;2.20;;;;;;;5.56;82.74;98170.72;5017671;27;103326;-64
2023/11/17 00:47:51;;;;;;;3.50;2.10;;;;;;;5.64;83.03;98191.81;5019065;27;102503;-64
2023/11/17 00:50:19;;;;;;;3.47;2.20;;;;;;;5.65;83.06;98196.09;5017791;27;102722;-64
2023/11/17 00:52:47;;;;;;;3.40;2.00;;;;;;;5.53;83.19;98202.50;5018549;28;104267;-64
2023/11/17 00:55:17;;;;;;;3.47;2.35;;;;;;;5.58;83.33;98218.66;5015591;27;103309;-64
2023/11/17 00:57:45;;;;;;;4.25;2.10;;;;;;;5.52;82.73;98225.34;5017832;27;102676;-64
2023/11/17 01:00:15;;;;;;;4.53;2.05;;;;;;;5.48;82.81;98235.31;5017699;28;102759;-64
2023/11/17 01:02:44;;;;;;;3.00;1.90;;;;;;;5.58;82.83;98251.03;5012299;28;103203;-64
2023/11/17 01:05:13;;;;;;;3.85;2.13;;;;;;;5.46;82.28;98263.53;5016962;28;103184;-65
2023/11/17 01:07:44;;;;;;;3.60;1.88;;;;;;;5.61;82.17;98265.69;5020867;27;102673;-64
2023/11/17 01:10:13;;;;;;;3.78;2.13;;;;;;;5.55;82.42;98274.94;5017094;27;102681;-64
2023/11/17 01:12:41;;;;;;;1.40;1.30;;;;;;;5.51;81.27;98285.91;5021431;27;103788;-64
2023/11/17 01:15:13;;;;;;;2.20;1.50;;;;;;;5.51;81.89;98291.16;5020099;27;103348;-64
2023/11/17 01:17:44;;;;;;;2.00;1.40;;;;;;;5.63;81.65;98290.81;5014794;27;102666;-64
2023/11/17 01:20:12;;;;;;;2.05;1.48;;;;;;;5.63;81.70;98303.97;5016453;27;102784;-65
2023/11/17 01:22:40;;;;;;;1.33;1.23;;;;;;;5.64;81.28;98302.97;5019905;27;104393;-65
2023/11/17 01:25:09;;;;;;;4.55;1.70;;;;;;;5.63;81.04;98324.13;5017460;27;103225;-65
2023/11/17 01:27:39;;;;;;;2.22;1.52;;;;;;;5.56;81.80;98333.59;5018396;27;102655;-65
2023/11/17 01:30:09;;;;;;;4.20;1.65;;;;;;;5.71;81.26;98336.56;5015929;27;103439;-65
2023/11/17 01:32:38;;;;;;;2.17;1.27;;;;;;;5.80;81.42;98349.66;5016142;27;103831;-65
2023/11/17 01:35:11;;;;;;;3.50;1.90;;;;;;;5.68;81.55;98361.31;5018273;27;103364;-65
2023/11/17 01:37:40;;;;;;;3.40;1.70;;;;;;;5.58;81.95;98364.00;5016539;27;102877;-65
2023/11/17 01:40:09;;;;;;;2.90;1.90;;;;;;;5.69;82.08;98383.19;5010906;28;102815;-65
2023/11/17 01:42:38;;;;;;;3.97;1.95;;;;;;;5.51;82.10;98396.25;5013379;28;103214;-65
2023/11/17 01:45:07;;;;;;;3.75;1.83;;;;;;;5.61;82.15;98391.78;5017713;27;103231;-65
2023/11/17 01:47:39;;;;;;;2.17;1.52;;;;;;;5.70;82.07;98401.44;5014727;28;102670;-65
2023/11/17 01:50:13;;;;;;;3.28;1.90;;;;;;;5.34;81.39;98406.50;5013535;27;102762;-64
2023/11/17 01:52:43;;;;;;;3.95;1.95;;;;;;;5.52;82.30;98411.84;5014631;27;103221;-64
2023/11/17 01:55:12;;;;;;;3.03;1.70;;;;;;;5.45;81.95;98419.47;5013763;27;103093;-64
2023/11/17 01:57:43;;;;;;;2.92;1.70;;;;;;;5.53;81.93;98416.13;5016150;28;102699;-64
2023/11/17 02:00:15;;;;;;;4.88;2.00;;;;;;;5.58;81.68;98426.19;5012599;28;103050;-64
2023/11/17 02:02:47;;;;;;;4.00;2.30;;;;;;;5.50;81.81;98426.09;5015307;28;103308;-64
2023/11/17 02:05:20;;;;;;;2.78;1.80;;;;;;;5.65;81.69;98438.63;5014297;27;103206;-64
2023/11/17 02:08:02;;;;;;;4.05;2.05;;;;;;;5.81;81.52;98429.31;5008586;27;104979;-64
2023/11/17 02:10:38;;;;;;;3.10;2.25;;;;;;;5.76;81.56;98442.88;5014556;27;102666;-64
2023/11/17 02:13:15;;;;;;;3.72;2.33;;;;;;;5.70;81.42;98448.72;5016468;27;103267;-64
2023/11/17 02:15:44;;;;;;;4.72;2.50;;;;;;;5.76;81.58;98453.38;5014407;27;103224;-64
2023/11/17 02:18:15;;;;;;;4.20;2.55;;;;;;;5.74;80.90;98459.78;5012800;27;102663;-64
2023/11/17 02:20:50;;;;;;;4.65;2.42;;;;;;;5.75;81.47;98467.53;5014739;27;102778;-65
2023/11/17 02:23:20;;;;;;;5.10;2.25;;;;;;;5.77;81.33;98467.38;5017757;27;103205;-64
2023/11/17 02:25:59;;;;;;;4.55;2.80;;;;;;;5.89;81.15;98474.09;5013326;27;103454;-64
2023/11/17 02:28:36;;;;;;;6.35;2.70;;;;;;;5.86;81.49;98473.56;5014355;27;102933;-64
2023/11/17 02:31:19;;;;;;;3.83;2.22;;;;;;;5.89;80.83;98483.78;5014564;27;103623;-64
2023/11/17 02:33:48;;;;;;;6.53;2.90;;;;;;;5.92;81.24;98489.59;5008910;27;104089;-64
2023/11/17 02:36:19;;;;;;;5.63;3.08;;;;;;;5.91;81.21;98489.75;5015481;27;105044;-64
2023/11/17 02:38:56;;;;;;;4.40;2.85;;;;;;;5.97;81.07;98497.03;5006988;27;102740;-64
2023/11/17 02:41:32;;;;;;;5.70;2.92;;;;;;;6.00;81.63;98502.06;5015408;27;102634;-64
2023/11/17 02:44:03;;;;;;;4.07;2.60;;;;;;;6.02;81.33;98502.72;5014126;27;103278;-64
2023/11/17 02:46:33;;;;;;;8.02;3.55;;;;;;;6.01;81.28;98514.22;5013668;27;103475;-64
2023/11/17 02:49:03;;;;;;;5.78;3.58;;;;;;;6.00;81.01;98503.84;5014643;27;102543;-64
2023/11/17 02:51:43;;;;;;;5.03;3.30;;;;;;;6.01;81.23;98519.47;5020408;27;102700;-64
2023/11/17 02:54:14;;;;;;;6.25;3.15;;;;;;;5.88;81.75;98519.78;5011968;27;103869;-63
2023/11/17 02:56:43;;;;;;;5.70;3.35;;;;;;;5.86;82.17;98524.34;5018223;27;103764;-63
2023/11/17 02:59:13;;;;;;;6.68;3.58;;;;;;;5.87;81.62;98533.88;5015916;27;102962;-64
2023/11/17 03:01:43;;;;;;;6.15;3.72;;;;;;;5.91;82.09;98534.44;5013089;27;102649;-65
2023/11/17 03:04:15;;;;;;;6.47;4.07;;;;;;;5.97;81.96;98539.94;5017258;27;103363;-61
2023/11/17 03:06:46;;;;;;;6.38;4.22;;;;;;;5.96;81.94;98547.94;5016042;27;103252;-61
2023/11/17 03:09:16;;;;;;;7.43;3.92;;;;;;;5.90;82.13;98546.72;5017141;27;102647;-63
2023/11/17 03:11:45;;;;;;;6.90;4.22;;;;;;;6.00;82.20;98551.16;5019986;27;104200;-61
2023/11/17 03:14:13;;;;;;;7.15;4.47;;;;;;;6.02;81.78;98557.13;5018652;27;102946;-61
2023/11/17 03:16:43;;;;;;;5.82;3.78;;;;;;;5.98;81.35;98556.56;5016874;27;103228;-61
2023/11/17 03:19:11;;;;;;;5.82;3.70;;;;;;;5.99;81.46;98558.25;5016370;27;102688;-61
2023/11/17 03:21:41;;;;;;;7.40;4.13;;;;;;;6.04;81.62;98556.00;5018181;27;102729;-62
2023/11/17 03:24:14;;;;;;;5.97;3.60;;;;;;;5.95;81.33;98567.34;5033887;27;103057;-62
2023/11/17 03:26:44;;;;;;;4.88;3.20;;;;;;;6.06;81.34;98567.19;5015252;27;103278;-62
2023/11/17 03:29:13;;;;;;;4.60;3.13;;;;;;;6.11;81.30;98572.03;5017332;27;102621;-62
2023/11/17 03:31:48;;;;;;;6.35;3.55;;;;;;;6.05;81.08;98568.19;5018797;27;103826;-62
2023/11/17 03:34:18;;;;;;;5.93;3.75;;;;;;;6.13;81.16;98581.44;5018890;27;103304;-62
2023/11/17 03:36:47;;;;;;;7.70;4.32;;;;;;;6.01;81.35;98579.13;5012229;27;103016;-62
2023/11/17 03:39:15;;;;;;;5.85;3.78;;;;;;;6.08;81.47;98583.69;5014275;27;102660;-62
2023/11/17 03:41:43;;;;;;;5.85;3.15;;;;;;;6.14;81.18;98593.63;5015324;28;104410;-62
2023/11/17 03:44:12;;;;;;;6.75;3.55;;;;;;;6.14;81.28;98593.63;5015387;27;103244;-62
2023/11/17 03:46:40;;;;;;;6.10;3.90;;;;;;;6.12;81.23;98590.31;5008659;27;103222;-62
2023/11/17 03:49:11;;;;;;;4.43;2.95;;;;;;;6.19;81.35;98605.53;5016062;27;102674;-62
2023/11/17 03:51:40;;;;;;;4.75;3.35;;;;;;;6.05;81.37;98599.75;5016076;27;102589;-62
2023/11/17 03:54:09;;;;;;;7.40;3.13;;;;;;;6.07;80.57;98608.31;5015582;27;103272;-62
2023/11/17 03:56:38;;;;;;;5.20;3.38;;;;;;;6.06;81.64;98611.91;5012218;27;103433;-62
2023/11/17 03:59:09;;;;;;;5.07;2.97;;;;;;;6.11;80.74;98614.13;5018373;27;103028;-61
2023/11/17 04:01:39;;;;;;;8.18;3.70;;;;;;;6.08;81.61;98617.03;5022478;27;103829;-61
2023/11/17 04:04:08;;;;;;;8.52;3.42;;;;;;;6.11;81.14;98614.13;5019312;27;103039;-61
2023/11/17 04:06:38;;;;;;;6.07;3.03;;;;;;;6.17;81.04;98617.97;5017609;27;103011;-62
2023/11/17 04:09:08;;;;;;;4.57;2.88;;;;;;;6.16;81.35;98616.31;5015613;27;102716;-62
2023/11/17 04:11:36;;;;;;;4.97;3.38;;;;;;;6.10;81.28;98623.78;5015445;27;102648;-63
2023/11/17 04:14:05;;;;;;;5.95;2.70;;;;;;;6.16;81.68;98621.56;5015630;27;103135;-63
2023/11/17 04:16:33;;;;;;;4.78;2.60;;;;;;;6.18;80.97;98632.78;5014815;28;103209;-63
2023/11/17 04:19:02;;;;;;;5.50;2.72;;;;;;;6.20;80.98;98629.03;5016458;27;102682;-63
2023/11/17 04:21:34;;;;;;;3.97;2.72;;;;;;;6.26;81.41;98632.91;5018216;27;103190;-63
2023/11/17 04:24:04;;;;;;;6.25;2.97;;;;;;;6.23;80.75;98634.00;5018396;27;104552;-63
2023/11/17 04:26:32;;;;;;;4.50;2.83;;;;;;;6.14;80.78;98629.59;5021231;27;103366;-63
2023/11/17 04:29:00;;;;;;;4.38;2.25;;;;;;;6.17;80.99;98633.75;5033043;27;102670;-63
2023/11/17 04:31:28;;;;;;;4.57;2.80;;;;;;;6.18;80.24;98640.66;5017894;27;102727;-65
2023/11/17 04:33:56;;;;;;;4.00;2.67;;;;;;;6.16;80.63;98626.81;5016153;27;103245;-63
2023/11/17 04:36:25;;;;;;;6.55;3.17;;;;;;;6.12;80.53;98631.56;5022305;27;103239;-63
2023/11/17 04:38:55;;;;;;;4.20;2.67;;;;;;;6.03;80.47;98638.47;5026315;27;102651;-64
2023/11/17 04:41:25;;;;;;;4.50;2.38;;;;;;;6.07;80.67;98639.84;5024267;27;103914;-63
2023/11/17 04:43:55;;;;;;;3.22;2.22;;;;;;;6.03;80.45;98643.75;5011183;27;103258;-63
2023/11/17 04:46:23;;;;;;;4.40;2.50;;;;;;;6.06;81.24;98646.06;5021456;27;103252;-63
2023/11/17 04:48:51;;;;;;;3.63;2.05;;;;;;;6.02;80.67;98646.50;5019899;27;102681;-63
2023/11/17 04:51:19;;;;;;;4.70;2.30;;;;;;;6.05;80.93;98656.75;5019952;27;102694;-67
2023/11/17 04:53:47;;;;;;;3.63;2.22;;;;;;;6.09;80.75;98648.44;5015072;27;103431;-66
2023/11/17 04:56:17;;;;;;;5.38;2.92;;;;;;;6.10;80.21;98646.63;5015889;27;104101;-66
2023/11/17 04:58:47;;;;;;;3.72;2.33;;;;;;;6.10;80.72;98657.97;5014646;27;102638;-66
2023/11/17 05:01:15;;;;;;;5.30;2.70;;;;;;;6.11;80.66;98651.75;5015434;28;102669;-66
2023/11/17 05:03:44;;;;;;;4.38;2.42;;;;;;;6.09;80.68;98652.84;5015344;28;103390;-66
2023/11/17 05:06:13;;;;;;;4.95;2.90;;;;;;;6.03;80.15;98650.81;5017592;27;103249;-66
2023/11/17 05:08:41;;;;;;;4.63;2.58;;;;;;;6.04;80.68;98655.06;5008186;28;102821;-66
2023/11/17 05:11:10;;;;;;;4.50;2.90;;;;;;;6.03;80.27;98654.25;5017345;27;104006;-65
2023/11/17 05:13:39;;;;;;;3.88;2.30;;;;;;;6.06;80.32;98659.22;5018927;27;103795;-66
2023/11/17 05:16:09;;;;;;;3.90;2.50;;;;;;;6.09;80.48;98669.47;5020651;27;103375;-66
2023/11/17 05:18:38;;;;;;;4.30;2.28;;;;;;;6.09;80.44;98672.13;5018625;27;102614;-66
2023/11/17 05:21:06;;;;;;;4.00;2.80;;;;;;;6.08;80.37;98667.81;5017316;27;103920;-66
2023/11/17 05:23:36;;;;;;;5.13;2.65;;;;;;;6.03;80.22;98667.41;5012142;27;103218;-66
2023/11/17 05:26:06;;;;;;;4.13;2.53;;;;;;;6.06;80.52;98668.94;5015380;28;103244;-66
2023/11/17 05:28:34;;;;;;;4.53;2.47;;;;;;;6.06;80.28;98674.19;5021468;27;103047;-66
2023/11/17 05:31:08;;;;;;;5.60;2.50;;;;;;;6.08;80.33;98675.69;5016304;27;103974;-66
2023/11/17 05:33:37;;;;;;;4.10;2.42;;;;;;;6.07;79.70;98671.41;5019994;27;103229;-66
2023/11/17 05:36:08;;;;;;;4.45;2.10;;;;;;;6.06;80.25;98677.63;5012810;27;103292;-67
2023/11/17 05:38:38;;;;;;;3.55;2.10;;;;;;;6.04;80.47;98681.38;5011841;27;102684;-66
2023/11/17 05:41:08;;;;;;;4.93;2.83;;;;;;;6.04;79.93;98684.84;5019121;27;102668;-66
2023/11/17 05:43:36;;;;;;;3.88;2.50;;;;;;;6.08;79.93;98683.59;5016558;27;103444;-66
2023/11/17 05:46:05;;;;;;;4.93;2.58;;;;;;;5.99;80.66;98679.19;5015255;27;103884;-66
2023/11/17 05:48:37;;;;;;;4.40;2.75;;;;;;;6.03;80.00;98685.81;5034270;27;103210;-67
2023/11/17 05:51:09;;;;;;;5.07;2.70;;;;;;;6.02;80.50;98684.13;5020354;27;102639;-65
2023/11/17 05:53:38;;;;;;;3.17;2.00;;;;;;;5.98;80.85;98688.84;5005060;27;103254;-64
2023/11/17 05:56:07;;;;;;;3.30;1.98;;;;;;;5.99;80.82;98697.56;5014281;27;103330;-64
2023/11/17 05:58:37;;;;;;;2.72;1.77;;;;;;;6.07;80.49;98697.69;5010679;27;102923;-64
2023/11/17 06:01:16;;;;;;;2.78;1.88;;;;;;;6.08;80.81;98701.19;5015925;27;102867;-64
2023/11/17 06:03:56;;;;;;;3.10;1.90;;;;;;;6.11;80.97;98706.97;5016157;27;103203;-65
2023/11/17 06:06:24;;;;;;;3.95;2.17;;;;;;;6.16;81.10;98703.09;5016139;27;103943;-64
2023/11/17 06:08:53;;;;;;;6.85;3.42;;;;;;;6.21;80.70;98708.75;5017110;27;102817;-64
2023/11/17 06:11:28;;;;;;;3.83;2.22;;;;;;;6.12;80.96;98713.06;5014155;27;104319;-64
2023/11/17 06:13:56;;;;;;;4.63;2.95;;;;;;;6.13;80.80;98712.09;5015958;27;103292;-64
2023/11/17 06:16:28;;;;;;;3.70;2.63;;;;;;;6.16;80.35;98705.72;5014143;27;103325;-64
2023/11/17 06:18:58;;;;;;;5.65;3.13;;;;;;;6.16;80.43;98710.97;5019426;27;102920;-63
2023/11/17 06:21:27;;;;;;;4.55;2.85;;;;;;;6.16;80.92;98710.97;5016791;27;104120;-64
2023/11/17 06:24:06;;;;;;;4.72;2.88;;;;;;;6.19;80.84;98718.59;5015790;27;104407;-64
2023/11/17 06:26:45;;;;;;;6.55;4.25;;;;;;;6.21;80.11;98714.88;5012623;27;103274;-63
2023/11/17 06:29:22;;;;;;;5.35;3.05;;;;;;;6.18;81.01;98719.56;5032540;27;102935;-64
2023/11/17 06:31:59;;;;;;;6.03;3.35;;;;;;;6.16;80.46;98719.72;5019046;27;103174;-64
2023/11/17 06:34:31;;;;;;;7.10;3.67;;;;;;;6.14;79.74;98724.28;5008498;27;103019;-63
2023/11/17 06:36:59;;;;;;;5.18;2.83;;;;;;;6.16;80.47;98726.75;5007175;27;103207;-63
2023/11/17 06:39:29;;;;;;;5.28;2.70;;;;;;;6.10;80.16;98722.88;5010464;27;102783;-63
2023/11/17 06:54:49;;;;;;;6.65;2.97;;;;;;;6.09;79.46;98737.84;4997957;27;102744;-63
2023/11/17 06:57:17;;;;;;;4.70;2.90;;;;;;;6.11;80.02;98730.63;5006084;28;103990;-64
2023/11/17 06:59:45;;;;;;;6.07;3.35;;;;;;;5.98;79.42;98740.59;5009198;27;103139;-67
2023/11/17 07:02:14;;;;;;;5.75;2.85;;;;;;;6.06;79.89;98743.38;5005414;27;103321;-67
2023/11/17 07:04:42;;;;;;;4.05;2.42;;;;;;;6.12;79.88;98747.25;5026471;27;102715;-66
2023/11/17 07:07:10;;;;;;;4.70;3.00;;;;;;;6.17;79.56;98746.81;5007918;27;102662;-67
2023/11/17 07:09:39;;;;;;;4.82;2.95;;;;;;;6.12;79.60;98747.25;5009966;27;103302;-67
2023/11/17 07:12:09;;;;;;;4.78;2.70;;;;;;;6.12;79.35;98750.72;5012029;27;103271;-67
2023/11/17 07:14:37;;;;;;;5.13;2.83;;;;;;;6.13;79.55;98755.00;5010847;27;102672;-67
2023/11/17 07:17:05;;;;;;;5.93;3.55;;;;;;;6.17;79.35;98767.88;5013348;27;102677;-65
2023/11/17 07:19:34;;;;;;;6.22;3.75;;;;;;;6.15;79.89;98762.75;5009425;27;103500;-65
2023/11/17 07:22:05;;;;;;;7.57;3.80;;;;;;;6.11;79.40;98771.88;5006218;27;103173;-67
2023/11/17 07:24:33;;;;;;;6.43;3.20;;;;;;;5.96;79.48;98774.91;5007035;27;102524;-67
2023/11/17 07:27:07;;;;;;;5.00;3.30;;;;;;;6.11;79.70;98782.41;5009411;27;102616;-68
2023/11/17 07:29:37;;;;;;;6.07;2.72;;;;;;;6.19;79.85;98789.63;5005430;27;103323;-67
2023/11/17 07:32:05;;;;;;;7.45;2.92;;;;;;;6.23;79.84;98783.09;5016732;27;103082;-68
2023/11/17 07:34:34;;;;;;;5.88;3.13;;;;;;;6.22;79.93;98789.31;5010383;27;102801;-67
2023/11/17 07:37:03;;;;;;;6.55;3.88;;;;;;;6.25;79.75;98794.31;5008198;27;102810;-68
2023/11/17 07:39:33;;;;;;;7.93;3.83;;;;;;;6.19;79.85;98792.25;5017681;27;103214;-68
2023/11/17 07:42:04;;;;;;;6.55;3.95;;;;;;;6.20;80.46;98799.16;5017178;27;103205;-68
2023/11/17 07:44:33;;;;;;;6.57;3.75;;;;;;;6.24;79.97;98805.81;5010207;27;102564;-68
2023/11/17 07:47:04;;;;;;;8.38;4.43;;;;;;;6.27;79.98;98808.16;5011463;27;102665;-68
2023/11/17 07:49:34;;;;;;;7.80;4.03;;;;;;;6.27;80.33;98808.16;5012318;27;104070;-68
2023/11/17 07:52:03;;;;;;;5.97;4.00;;;;;;;6.35;80.37;98804.84;5015703;27;103380;-68
2023/11/17 07:54:31;;;;;;;8.32;4.50;;;;;;;6.34;80.06;98806.66;5007100;27;103277;-67
2023/11/17 07:57:01;;;;;;;6.95;3.47;;;;;;;6.36;79.73;98811.78;5008152;27;103067;-67
2023/11/17 07:59:30;;;;;;;6.45;4.13;;;;;;;6.36;79.41;98812.59;5016850;27;104087;-68
2023/11/17 08:01:58;;;;;;;6.25;3.40;;;;;;;6.37;79.90;98822.16;5009666;27;103325;-68
2023/11/17 08:04:29;;;;;;;8.65;4.32;;;;;;;6.32;80.00;98821.72;5009221;27;102551;-67
2023/11/17 08:06:58;;;;;;;6.68;3.30;;;;;;;6.29;79.43;98822.03;5011131;27;103242;-67
2023/11/17 08:09:26;;;;;;;6.97;4.38;;;;;;;6.31;79.88;98833.22;5006723;27;104083;-67
2023/11/17 08:11:54;;;;;;;4.93;3.28;;;;;;;6.37;79.93;98831.84;5011286;27;103315;-67
2023/11/17 08:14:23;;;;;;;6.93;4.28;;;;;;;6.44;79.38;98836.41;5012498;27;102629;-66
2023/11/17 08:16:51;;;;;;;5.78;3.25;;;;;;;6.41;79.90;98841.13;5010867;27;102820;-67
2023/11/17 08:19:22;;;;;;;6.75;4.40;;;;;;;6.42;79.62;98845.41;5013850;27;104545;-66
2023/11/17 08:21:54;;;;;;;6.15;4.22;;;;;;;6.41;80.31;98841.13;5015375;27;103282;-66
2023/11/17 08:24:23;;;;;;;8.63;4.63;;;;;;;6.42;80.63;98843.63;5006586;27;102669;-67
2023/11/17 08:26:51;;;;;;;5.95;4.03;;;;;;;6.41;80.18;98841.94;5016397;27;102779;-68
2023/11/17 08:29:20;;;;;;;6.15;3.72;;;;;;;6.49;80.55;98840.44;5020642;27;104417;-67
2023/11/17 08:31:51;;;;;;;9.18;5.20;;;;;;;6.52;79.97;98845.41;5018215;27;103001;-67
2023/11/17 08:34:21;;;;;;;8.48;5.70;;;;;;;6.61;79.69;98847.22;5017839;27;102810;-64
2023/11/17 08:36:50;;;;;;;7.97;5.22;;;;;;;6.59;79.63;98849.13;5011071;27;102831;-67
2023/11/17 08:39:26;;;;;;;7.07;4.35;;;;;;;6.57;79.60;98845.84;5005483;27;103365;-67
2023/11/17 08:41:56;;;;;;;6.18;3.72;;;;;;;6.60;79.16;98845.53;5012834;27;103276;-65
2023/11/17 08:44:24;;;;;;;6.80;4.20;;;;;;;6.62;79.40;98848.88;5012916;27;102807;-65
2023/11/17 08:46:52;;;;;;;7.03;4.10;;;;;;;6.66;79.51;98854.72;5012192;27;102717;-65
2023/11/17 08:49:21;;;;;;;10.13;5.78;;;;;;;6.60;79.39;98853.44;5011660;27;103274;-65
2023/11/17 08:51:50;;;;;;;8.63;5.57;;;;;;;6.56;78.92;98865.22;5006322;27;103320;-65
2023/11/17 08:54:20;;;;;;;7.53;4.43;;;;;;;6.56;79.68;98863.41;5003992;27;102582;-65
2023/11/17 08:56:48;;;;;;;11.65;5.25;;;;;;;6.57;79.39;98866.88;5013267;27;103317;-64
2023/11/17 08:59:16;;;;;;;8.02;4.43;;;;;;;6.70;79.39;98867.44;5012214;27;103325;-64
2023/11/17 09:01:44;;;;;;;9.77;5.22;;;;;;;6.66;79.28;98868.69;5016171;27;103206;-64
2023/11/17 09:04:12;;;;;;;7.20;4.63;;;;;;;6.63;79.56;98872.44;5011616;27;102682;-64
2023/11/17 09:06:41;;;;;;;8.23;5.10;;;;;;;6.66;79.56;98866.06;5014468;27;102669;-63
2023/11/17 09:09:11;;;;;;;9.88;4.78;;;;;;;6.66;79.72;98871.31;5013047;27;104405;-63
2023/11/17 09:11:59;;;;;;;6.05;3.70;;;;;;;6.78;79.94;98880.72;5013038;28;103158;-67
2023/11/17 09:14:30;;;;;;;5.93;3.38;;;;;;;6.79;79.46;98871.84;5013323;27;102774;-67
2023/11/17 09:17:06;;;;;;;7.97;5.30;;;;;;;6.76;79.09;98877.41;5013456;28;102664;-68
2023/11/17 09:19:37;;;;;;;6.32;4.32;;;;;;;6.84;79.40;98881.97;5004353;28;103837;-68
2023/11/17 09:22:06;;;;;;;12.38;6.70;;;;;;;6.80;78.92;98878.78;5005459;27;103205;-68
2023/11/17 09:24:34;;;;;;;9.02;5.75;;;;;;;6.78;79.67;98885.97;5015701;28;103011;-67
2023/11/17 09:27:07;;;;;;;6.88;4.60;;;;;;;6.78;79.53;98891.25;5003709;27;102848;-67
2023/11/17 09:29:37;;;;;;;;;;;;;;;6.67;79.34;98885.28;5015744;27;103269;-63
2023/11/17 09:32:07;;;;;;;7.97;4.97;;;;;;;6.69;80.15;98886.81;5014864;27;103253;-63
2023/11/17 09:34:35;;;;;;;9.73;4.97;;;;;;;6.67;79.85;98880.03;5009110;27;102650;-63
2023/11/17 09:37:03;;;;;;;7.20;4.68;;;;;;;6.75;79.93;98883.63;5004134;27;103544;-64
2023/11/17 09:39:33;;;;;;;7.85;5.32;;;;;;;6.81;80.09;98884.88;5009449;27;103223;-64
2023/11/17 09:42:05;;;;;;;8.73;5.00;;;;;;;6.83;79.66;98888.22;5006752;27;103249;-64
2023/11/17 09:44:34;;;;;;;8.30;4.80;;;;;;;6.89;79.67;98892.09;5002701;27;102670;-64
2023/11/17 09:47:12;;;;;;;9.30;5.22;;;;;;;6.86;79.26;98892.38;5012406;27;103011;-64
2023/11/17 09:49:42;;;;;;;7.28;5.10;;;;;;;6.75;78.38;98894.16;5013238;27;103237;-63
2023/11/17 09:52:14;;;;;;;10.73;5.65;;;;;;;6.77;79.27;98889.63;5006630;27;104461;-64
2023/11/17 09:54:42;;;;;;;7.97;5.65;;;;;;;6.67;78.51;98885.28;5012788;27;102695;-63
2023/11/17 09:57:14;;;;;;;7.10;5.28;;;;;;;6.69;78.03;98886.81;5009617;28;103531;-64
2023/11/17 09:59:43;;;;;;;9.02;5.07;;;;;;;6.79;78.55;98889.47;5008590;27;103289;-67
2023/11/17 10:02:17;;;;;;;8.40;5.05;;;;;;;6.77;78.83;98894.03;5011579;27;103956;-67
2023/11/17 10:04:45;;;;;;;5.47;3.42;;;;;;;6.77;78.66;98891.41;5005859;27;102704;-68
2023/11/17 10:07:16;;;;;;;6.97;3.60;;;;;;;6.66;78.58;98892.38;5006403;27;102687;-67
2023/11/17 10:09:49;;;;;;;7.75;4.70;;;;;;;6.70;78.87;98899.03;5009867;27;103248;-67
2023/11/17 10:12:19;;;;;;;5.88;3.55;;;;;;;6.61;78.96;98889.31;5017157;27;103302;-67
2023/11/17 10:14:48;;;;;;;7.82;4.70;;;;;;;6.62;78.86;98891.00;5014778;27;103366;-66
2023/11/17 10:17:17;;;;;;;6.97;4.03;;;;;;;6.69;79.08;98891.25;5007567;27;102655;-67
2023/11/17 10:19:49;;;;;;;11.10;5.80;;;;;;;6.65;78.83;98898.59;5009445;28;102981;-66
2023/11/17 10:22:17;;;;;;;6.55;4.15;;;;;;;6.52;78.90;98895.41;5014500;27;102984;-66
2023/11/17 10:24:46;;;;;;;5.32;3.42;;;;;;;6.68;79.23;98889.59;5014400;27;102613;-67
2023/11/17 10:27:17;;;;;;;7.07;4.03;;;;;;;6.72;79.15;98906.78;5010811;27;102890;-67
2023/11/17 10:29:49;;;;;;;5.00;3.03;;;;;;;6.75;78.90;98901.25;5008470;27;103238;-67
2023/11/17 10:32:21;;;;;;;7.53;4.53;;;;;;;6.71;79.18;98910.41;5011679;27;103257;-67
2023/11/17 10:35:16;;;;;;;7.90;4.30;;;;;;;6.76;78.88;98909.00;5009494;27;102767;-67
2023/11/17 10:37:49;;;;;;;7.03;4.03;;;;;;;6.84;78.85;98913.56;5005603;27;103843;-67
2023/11/17 10:40:24;;;;;;;7.80;4.75;;;;;;;6.84;78.67;98912.72;5010137;27;103498;-67
2023/11/17 10:43:07;;;;;;;5.18;3.70;;;;;;;6.80;78.67;98910.38;5009270;27;103258;-67
2023/11/17 10:45:41;;;;;;;6.15;3.72;;;;;;;6.84;78.18;98912.72;5010228;27;102627;-67
2023/11/17 10:48:12;;;;;;;4.93;3.63;;;;;;;6.85;78.23;98906.50;5010819;27;103519;-66
2023/11/17 10:50:42;;;;;;;5.00;3.50;;;;;;;6.93;77.70;98909.25;5006069;27;103301;-66
2023/11/17 10:53:13;;;;;;;5.70;3.78;;;;;;;6.90;78.15;98910.38;5009239;27;103242;-67
2023/11/17 10:55:42;;;;;;;4.18;2.80;;;;;;;6.99;77.51;98903.44;5004860;28;102642;-67
2023/11/17 10:58:15;;;;;;;4.15;2.63;;;;;;;7.09;78.06;98901.63;5009318;27;102775;-67
2023/11/17 11:00:46;;;;;;;5.68;3.60;;;;;;;7.02;77.03;98908.44;5012918;27;102936;-67
2023/11/17 11:03:16;;;;;;;4.28;2.88;;;;;;;7.03;77.67;98898.72;5010986;27;103358;-67
2023/11/17 11:05:48;;;;;;;4.47;2.60;;;;;;;7.10;77.90;98890.13;5012947;27;103073;-66
2023/11/17 11:08:18;;;;;;;5.00;2.67;;;;;;;7.16;78.27;98895.81;5007241;27;104343;-67
2023/11/17 11:10:57;;;;;;;4.88;2.88;;;;;;;7.14;77.55;98890.69;5007681;27;104663;-66
2023/11/17 11:13:28;;;;;;;5.82;3.17;;;;;;;7.18;78.34;98896.47;5013500;27;103380;-66
2023/11/17 11:16:07;;;;;;;4.30;2.55;;;;;;;7.12;76.91;98892.63;5010920;27;102731;-67
2023/11/17 11:18:36;;;;;;;4.72;2.67;;;;;;;7.06;77.42;98896.66;5010674;27;103769;-66
2023/11/17 11:21:07;;;;;;;4.70;2.72;;;;;;;7.06;77.74;98903.72;5010174;27;103927;-67
2023/11/17 11:23:39;;;;;;;4.68;2.88;;;;;;;7.11;77.56;98902.34;5010091;27;103206;-67
2023/11/17 11:26:08;;;;;;;3.90;2.35;;;;;;;7.08;76.77;98902.59;5009596;27;103011;-67
2023/11/17 11:28:37;;;;;;;3.78;2.38;;;;;;;7.01;77.77;98906.78;5014354;27;102618;-66
2023/11/17 11:31:11;;;;;;;5.53;2.58;;;;;;;7.09;77.32;98906.09;5010398;27;103385;-66
2023/11/17 11:33:39;;;;;;;3.70;2.50;;;;;;;7.07;76.60;98903.56;5009963;27;103268;-66
2023/11/17 11:36:10;;;;;;;4.95;2.63;;;;;;;7.18;76.11;98901.75;5011118;27;102860;-62
2023/11/17 11:38:42;;;;;;;;;;;;;;;7.19;76.91;98912.16;5015388;27;103696;-66
2023/11/17 11:41:12;;;;;;;5.10;2.67;;;;;;;7.23;76.85;98907.44;5010451;27;104398;-66
2023/11/17 11:43:40;;;;;;;4.90;3.30;;;;;;;7.32;76.33;98903.94;5011811;27;105224;-63
2023/11/17 11:46:19;;;;;;;3.60;2.30;;;;;;;7.43;76.28;98911.69;5015316;27;102580;-66
2023/11/17 11:48:49;;;;;;;9.50;3.50;;;;;;;7.53;76.19;98916.09;5016929;27;102744;-65
2023/11/17 11:51:23;;;;;;;7.65;2.85;;;;;;;7.51;76.10;98918.06;5006872;27;103502;-63
2023/11/17 11:53:55;;;;;;;9.45;3.58;;;;;;;7.36;75.94;98905.31;5014329;27;103232;-63
2023/11/17 11:56:29;;;;;;;6.07;3.00;;;;;;;7.43;75.71;98911.69;5020795;27;102615;-63
2023/11/17 11:58:58;;;;;;;4.55;2.58;;;;;;;7.42;75.80;98912.66;5011303;27;102656;-63
2023/11/17 12:01:32;;;;;;;3.90;2.53;;;;;;;7.55;75.76;98906.25;5012724;27;103204;-66